createdAt,value
2019-06-20T05:20:25.186Z,59.10
2019-06-20T05:23:55.765Z,58.50
2019-06-20T05:26:24.343Z,58.20
2019-06-20T05:29:24.025Z,58.40
2019-06-20T05:31:52.571Z,59.00
2019-06-20T05:34:24.234Z,59.10
2019-06-20T05:36:53.817Z,58.80
2019-06-20T05:39:22.853Z,58.90
2019-06-20T05:41:51.543Z,58.40
2019-06-20T05:44:20.109Z,59.10
2019-06-20T05:46:48.953Z,58.80
2019-06-20T05:49:17.571Z,58.80
2019-06-20T05:51:46.419Z,59.80
2019-06-20T05:54:15.730Z,59.90
2019-06-20T05:56:44.707Z,60.30
2019-06-20T05:59:18.558Z,59.50
2019-06-20T06:01:55.361Z,59.70
2019-06-20T06:04:24.391Z,59.80
2019-06-20T06:06:53.085Z,60.50
2019-06-20T06:09:22.029Z,61.60
2019-06-20T06:11:52.603Z,61.80
2019-06-20T06:14:21.256Z,62.10
2019-06-20T06:16:49.986Z,63.60
2019-06-20T06:19:18.560Z,63.20
2019-06-20T06:21:50.207Z,63.30
2019-06-20T06:24:18.675Z,62.40
2019-06-20T06:26:50.314Z,61.50
2019-06-20T06:29:20.835Z,61.40
2019-06-20T06:31:49.518Z,61.60
2019-06-20T06:34:21.883Z,61.20
2019-06-20T06:36:48.725Z,60.70
2019-06-20T06:39:17.775Z,61.10
2019-06-20T06:41:52.370Z,60.60
2019-06-20T06:44:23.055Z,60.50
2019-06-20T06:46:57.478Z,60.70
2019-06-20T06:49:22.954Z,60.60
2019-06-20T06:51:51.500Z,59.70
2019-06-20T06:54:20.302Z,59.10
2019-06-20T06:59:21.991Z,59.00
2019-06-20T07:01:49.250Z,58.90
2019-06-20T07:04:18.303Z,58.90
2019-06-20T07:06:45.654Z,58.90
2019-06-20T07:09:12.530Z,58.90
2019-06-20T07:11:39.230Z,59.30
2019-06-20T07:14:05.673Z,59.60
2019-06-20T07:16:32.094Z,60.00
2019-06-20T07:18:58.873Z,60.70
2019-06-20T07:21:27.083Z,61.40
2019-06-20T07:23:54.745Z,61.20
2019-06-20T07:26:21.973Z,61.20
2019-06-20T07:29:03.625Z,61.20
2019-06-20T07:33:54.895Z,61.20
2019-06-20T07:36:24.541Z,61.10
2019-06-20T07:38:55.084Z,62.40
2019-06-20T07:41:24.547Z,63.20
2019-06-20T07:44:00.850Z,63.30
2019-06-20T07:46:30.555Z,62.70
2019-06-20T07:49:00.335Z,62.70
2019-06-20T07:51:32.502Z,62.20
2019-06-20T07:54:03.580Z,62.70
2019-06-20T07:56:33.518Z,63.30
2019-06-20T07:59:12.712Z,63.60
2019-06-20T08:01:42.521Z,63.10
2019-06-20T08:04:11.928Z,62.60
2019-06-20T08:06:42.691Z,60.50
2019-06-20T08:09:12.029Z,61.20
2019-06-20T08:11:42.693Z,60.00
2019-06-20T08:14:16.193Z,58.90
2019-06-20T08:16:49.282Z,58.20
2019-06-20T08:19:18.938Z,57.80
2019-06-20T08:21:49.172Z,57.40
2019-06-20T08:24:18.694Z,57.30
2019-06-20T08:26:48.713Z,57.20
2019-06-20T08:29:21.278Z,56.90
2019-06-20T08:31:52.217Z,56.90
2019-06-20T08:34:22.954Z,56.80
2019-06-20T08:36:52.332Z,56.60
2019-06-20T08:39:21.981Z,56.90
2019-06-20T08:41:52.911Z,56.90
2019-06-20T08:44:22.302Z,56.50
2019-06-20T08:46:52.978Z,56.50
2019-06-20T08:49:22.501Z,56.30
2019-06-20T08:51:55.626Z,56.30
2019-06-20T08:54:25.044Z,56.00
2019-06-20T08:56:57.042Z,55.80
2019-06-20T08:59:25.918Z,55.70
2019-06-20T09:01:58.033Z,55.70
2019-06-20T09:04:26.501Z,56.80
2019-06-20T09:06:57.529Z,55.90
2019-06-20T09:09:27.290Z,55.90
2019-06-20T09:11:58.551Z,55.70
2019-06-20T09:14:28.135Z,55.70
2019-06-20T09:16:59.315Z,56.80
2019-06-20T09:19:29.761Z,57.70
2019-06-20T09:22:01.244Z,57.60
2019-06-20T09:24:30.704Z,57.80
2019-06-20T09:27:06.635Z,57.90
2019-06-20T09:29:41.588Z,57.80
2019-06-20T09:32:16.918Z,58.00
2019-06-20T09:34:46.363Z,57.50
2019-06-20T09:37:18.974Z,57.50
2019-06-20T09:39:48.317Z,57.70
2019-06-20T09:42:17.804Z,56.60
2019-06-20T09:44:47.375Z,56.60
2019-06-20T09:47:21.059Z,56.30
2019-06-20T09:49:53.560Z,55.80
2019-06-20T09:52:22.984Z,56.70
2019-06-20T09:54:53.871Z,56.90
2019-06-20T09:57:29.705Z,57.10
2019-06-20T10:00:09.609Z,56.50
2019-06-20T10:02:35.178Z,56.00
2019-06-20T10:05:06.749Z,55.70
2019-06-20T10:07:37.147Z,55.90
2019-06-20T10:10:10.913Z,55.80
2019-06-20T10:12:49.585Z,55.90
2019-06-20T10:15:28.047Z,55.70
2019-06-20T10:17:58.671Z,55.80
2019-06-20T10:20:40.818Z,55.70
2019-06-20T10:23:10.186Z,55.70
2019-06-20T10:25:40.853Z,55.70
2019-06-20T10:28:11.903Z,55.50
2019-06-20T10:30:41.254Z,55.60
2019-06-20T10:33:10.699Z,55.10
2019-06-20T10:35:40.097Z,55.10
2019-06-20T10:38:10.041Z,55.10
2019-06-20T10:40:39.476Z,55.20
2019-06-20T10:43:09.911Z,55.20
2019-06-20T10:45:39.642Z,55.40
2019-06-20T10:48:11.344Z,55.20
2019-06-20T10:50:44.007Z,55.20
2019-06-20T10:53:14.223Z,55.10
2019-06-20T10:55:44.881Z,54.70
2019-06-20T10:58:14.706Z,55.30
2019-06-20T11:00:44.597Z,54.60
2019-06-20T11:03:15.648Z,54.70
2019-06-20T11:05:48.110Z,54.50
2019-06-20T11:08:17.595Z,54.30
2019-06-20T11:10:47.307Z,54.10
2019-06-20T11:13:18.374Z,54.30
2019-06-20T11:15:52.110Z,54.10
2019-06-20T11:18:21.895Z,54.20
2019-06-20T11:20:52.322Z,54.00
2019-06-20T11:23:21.739Z,53.90
2019-06-20T11:25:55.074Z,53.90
2019-06-20T11:28:24.507Z,53.90
2019-06-20T11:31:00.978Z,53.80
2019-06-20T11:33:30.462Z,53.60
2019-06-20T11:35:59.889Z,53.80
2019-06-20T11:38:29.701Z,53.70
2019-06-20T11:41:00.421Z,53.30
2019-06-20T11:43:29.868Z,53.00
2019-06-20T11:45:59.320Z,52.90
2019-06-20T11:48:29.347Z,53.00
2019-06-20T11:50:59.771Z,52.60
2019-06-20T11:53:30.403Z,52.50
2019-06-20T11:56:00.265Z,51.60
2019-06-20T11:58:33.070Z,51.20
2019-06-20T12:01:04.236Z,51.30
2019-06-20T12:03:34.167Z,51.70
2019-06-20T12:06:03.769Z,51.90
2019-06-20T12:08:40.461Z,51.70
2019-06-20T12:11:12.029Z,51.30
2019-06-20T12:13:44.285Z,51.70
2019-06-20T12:16:15.260Z,51.30
2019-06-20T12:18:45.297Z,51.60
2019-06-20T12:21:16.014Z,51.30
2019-06-20T12:23:46.885Z,51.30
2019-06-20T12:26:19.517Z,51.50
2019-06-20T12:28:49.111Z,51.20
2019-06-20T12:31:19.946Z,51.00
2019-06-20T12:33:51.638Z,50.70
2019-06-20T12:36:21.279Z,50.60
2019-06-20T12:38:52.219Z,50.80
2019-06-20T12:41:24.452Z,50.60
2019-06-20T12:43:54.516Z,50.70
2019-06-20T12:46:24.287Z,50.70
2019-06-20T12:48:55.458Z,50.80
2019-06-20T12:51:34.807Z,50.80
2019-06-20T12:54:05.340Z,51.00
2019-06-20T12:56:41.913Z,51.00
2019-06-20T12:59:11.971Z,51.30
2019-06-20T13:01:45.721Z,51.00
2019-06-20T13:04:12.832Z,50.90
2019-06-20T13:06:42.487Z,50.90
2019-06-20T13:09:11.996Z,50.80
2019-06-20T13:11:42.676Z,51.30
2019-06-20T13:14:12.356Z,51.50
2019-06-20T13:16:46.140Z,51.10
2019-06-20T13:19:15.768Z,50.80
2019-06-20T13:21:46.581Z,51.30
2019-06-20T13:24:16.142Z,51.10
2019-06-20T13:26:48.917Z,51.10
2019-06-20T13:29:19.091Z,51.20
2019-06-20T13:32:03.553Z,51.30
2019-06-20T13:34:23.682Z,51.40
2019-06-20T13:36:53.138Z,52.20
2019-06-20T13:39:23.276Z,51.80
2019-06-20T13:41:52.815Z,52.20
2019-06-20T13:44:23.932Z,52.20
2019-06-20T13:46:55.928Z,52.20
2019-06-20T13:49:26.304Z,52.30
2019-06-20T13:52:00.117Z,52.50
2019-06-20T13:54:30.383Z,52.50
2019-06-20T13:57:00.033Z,52.50
2019-06-20T13:59:32.260Z,53.00
2019-06-20T14:02:06.813Z,53.90
2019-06-20T14:04:33.085Z,53.80
2019-06-20T14:07:02.508Z,53.90
2019-06-20T14:09:31.949Z,54.20
2019-06-20T14:12:01.421Z,55.10
2019-06-20T14:14:31.507Z,55.30
2019-06-20T14:17:02.164Z,55.10
2019-06-20T14:19:31.989Z,54.90
2019-06-20T14:22:01.395Z,54.80
2019-06-20T14:24:31.189Z,54.90
2019-06-20T14:27:00.632Z,55.50
2019-06-20T14:29:30.203Z,55.80
2019-06-20T14:32:02.936Z,55.70
2019-06-20T14:34:32.361Z,55.70
2019-06-20T14:37:01.835Z,55.70
2019-06-20T14:39:34.123Z,56.20
2019-06-20T14:42:02.553Z,56.30
2019-06-20T14:44:32.047Z,56.80
2019-06-20T14:47:01.432Z,56.30
2019-06-20T14:49:31.612Z,56.70
2019-06-20T14:52:01.016Z,56.00
2019-06-20T14:54:31.971Z,55.70
2019-06-20T14:57:02.362Z,55.20
2019-06-20T14:59:35.261Z,54.90
2019-06-20T15:02:03.161Z,54.80
2019-06-20T15:04:32.642Z,54.80
2019-06-20T15:07:02.064Z,54.80
2019-06-20T15:09:33.438Z,54.70
2019-06-20T15:12:02.832Z,54.50
2019-06-20T15:14:32.275Z,54.50
2019-06-20T15:17:02.048Z,54.70
2019-06-20T15:19:31.493Z,54.70
2019-06-20T15:22:00.986Z,54.60
2019-06-20T15:24:30.845Z,54.30
2019-06-20T15:27:00.549Z,54.50
2019-06-20T15:29:30.073Z,54.20
2019-06-20T15:31:59.843Z,54.10
2019-06-20T15:34:29.299Z,54.00
2019-06-20T15:36:59.212Z,54.00
2019-06-20T15:39:28.583Z,53.60
2019-06-20T15:41:58.275Z,53.70
2019-06-20T15:44:27.898Z,54.00
2019-06-20T15:46:58.646Z,53.30
2019-06-20T15:49:31.821Z,53.90
2019-06-20T15:52:01.218Z,53.90
2019-06-20T15:54:30.916Z,53.10
2019-06-20T15:57:01.682Z,53.70
2019-06-20T15:59:33.614Z,53.40
2019-06-20T16:02:09.156Z,53.30
2019-06-20T16:04:43.057Z,53.60
2019-06-20T16:07:19.734Z,52.90
2019-06-20T16:09:50.100Z,52.70
2019-06-20T16:12:19.679Z,52.80
2019-06-20T16:14:49.040Z,52.50
2019-06-20T16:17:20.383Z,52.60
2019-06-20T16:19:49.766Z,52.90
2019-06-20T16:22:19.171Z,52.20
2019-06-20T16:24:48.543Z,52.70
2019-06-20T16:27:18.048Z,52.20
2019-06-20T16:29:51.366Z,52.30
2019-06-20T16:32:20.069Z,52.50
2019-06-20T16:34:49.450Z,53.00
2019-06-20T16:37:18.865Z,52.50
2019-06-20T16:39:48.324Z,52.60
2019-06-20T16:42:18.501Z,52.70
2019-06-20T16:44:48.160Z,52.90
2019-06-20T16:47:18.338Z,52.90
2019-06-20T16:49:47.863Z,52.90
2019-06-20T16:52:17.799Z,53.20
2019-06-20T16:54:47.352Z,53.10
2019-06-20T16:57:19.331Z,53.30
2019-06-20T16:59:48.771Z,53.30
2019-06-20T17:02:18.208Z,53.60
2019-06-20T17:04:47.701Z,53.20
2019-06-20T17:07:18.106Z,53.60
2019-06-20T17:09:47.566Z,53.30
2019-06-20T17:12:16.946Z,53.30
2019-06-20T17:14:46.416Z,53.30
2019-06-20T17:17:15.789Z,53.30
2019-06-20T17:19:46.890Z,53.90
2019-06-20T17:22:17.094Z,54.70
2019-06-20T17:24:47.716Z,54.60
2019-06-20T17:27:17.191Z,55.40
2019-06-20T17:29:46.714Z,55.10
2019-06-20T17:32:17.860Z,55.20
2019-06-20T17:34:47.415Z,55.30
2019-06-20T17:37:17.092Z,55.70
2019-06-20T17:39:46.583Z,55.40
2019-06-20T17:42:16.530Z,55.10
2019-06-20T17:44:46.762Z,55.40
2019-06-20T17:47:16.252Z,55.70
2019-06-20T17:49:45.978Z,55.80
2019-06-20T17:52:15.671Z,56.00
2019-06-20T17:54:45.597Z,56.10
2019-06-20T17:57:15.222Z,56.50
2019-06-20T17:59:44.621Z,56.40
2019-06-20T18:02:14.050Z,56.10
2019-06-20T18:04:43.499Z,55.70
2019-06-20T18:07:12.872Z,56.10
2019-06-20T18:09:44.329Z,56.60
2019-06-20T18:12:13.803Z,56.90
2019-06-20T18:14:44.076Z,56.50
2019-06-20T18:17:13.850Z,56.30
2019-06-20T18:19:45.079Z,56.10
2019-06-20T18:22:14.582Z,55.50
2019-06-20T18:24:45.643Z,55.10
2019-06-20T18:27:15.375Z,54.90
2019-06-20T18:29:45.077Z,54.80
2019-06-20T18:32:14.690Z,54.70
2019-06-20T18:35:00.908Z,54.80
2019-06-20T18:37:30.467Z,54.90
2019-06-20T18:39:48.287Z,55.00
2019-06-20T18:42:17.934Z,55.00
2019-06-20T18:44:47.360Z,55.00
2019-06-20T18:47:16.798Z,55.10
2019-06-20T18:49:47.472Z,54.70
2019-06-20T18:52:16.959Z,54.90
2019-06-20T18:54:46.653Z,54.90
2019-06-20T18:57:17.383Z,55.00
2019-06-20T18:59:46.862Z,55.30
2019-06-20T19:02:18.179Z,55.30
2019-06-20T19:04:50.693Z,55.40
2019-06-20T19:07:31.774Z,55.40
2019-06-20T19:10:01.178Z,55.40
2019-06-20T19:12:31.903Z,55.50
2019-06-20T19:15:01.801Z,56.10
2019-06-20T19:17:31.635Z,55.70
2019-06-20T19:20:01.430Z,55.70
2019-06-20T19:22:32.756Z,55.60
2019-06-20T19:25:06.178Z,55.50
2019-06-20T19:27:46.048Z,55.50
2019-06-20T19:30:12.514Z,55.50
2019-06-20T19:32:42.831Z,55.40
2019-06-20T19:35:13.682Z,55.50
2019-06-20T19:37:43.309Z,55.40
2019-06-20T19:40:14.436Z,55.30
2019-06-20T19:42:44.304Z,55.30
2019-06-20T19:45:14.887Z,55.40
2019-06-20T19:47:44.310Z,55.40
2019-06-20T19:50:14.110Z,55.50
2019-06-20T19:52:44.593Z,55.50
2019-06-20T19:55:15.627Z,55.60
2019-06-20T19:57:45.336Z,55.70
2019-06-20T20:00:15.417Z,55.80
2019-06-20T20:02:45.994Z,55.80
2019-06-20T20:05:19.695Z,55.50
2019-06-20T20:07:47.814Z,55.30
2019-06-20T20:10:32.659Z,55.10
2019-06-20T20:13:03.834Z,55.10
2019-06-20T20:15:35.198Z,55.10
2019-06-20T20:18:04.727Z,55.20
2019-06-20T20:20:34.431Z,55.20
2019-06-20T20:23:03.925Z,55.20
2019-06-20T20:25:36.317Z,55.20
2019-06-20T20:28:05.930Z,55.10
2019-06-20T20:30:35.523Z,55.00
2019-06-20T20:33:05.485Z,54.90
2019-06-20T20:35:36.080Z,54.90
2019-06-20T20:38:05.961Z,54.80
2019-06-20T20:40:35.832Z,54.70
2019-06-20T20:43:07.852Z,54.70
2019-06-20T20:45:40.742Z,54.70
2019-06-20T20:48:10.204Z,54.70
2019-06-20T20:50:40.143Z,54.60
2019-06-20T20:53:12.852Z,54.60
2019-06-20T20:55:42.242Z,54.60
2019-06-20T20:58:11.981Z,54.60
2019-06-20T21:01:11.715Z,54.70
2019-06-20T21:03:41.729Z,54.50
2019-06-20T21:06:11.672Z,54.50
2019-06-20T21:08:41.666Z,54.60
2019-06-20T21:11:13.390Z,54.60
2019-06-20T21:13:43.730Z,54.60
2019-06-20T21:16:13.471Z,54.50
2019-06-20T21:18:45.323Z,54.50
2019-06-20T21:21:14.961Z,54.50
2019-06-20T21:23:44.389Z,54.50
2019-06-20T21:26:13.772Z,54.50
2019-06-20T21:28:43.150Z,54.50
2019-06-20T21:31:12.705Z,54.50
2019-06-20T21:33:42.071Z,54.50
2019-06-20T21:36:11.437Z,54.50
2019-06-20T21:38:40.895Z,54.40
2019-06-20T21:41:10.405Z,54.40
2019-06-20T21:43:39.773Z,54.90
2019-06-20T21:46:09.246Z,54.40
2019-06-20T21:48:38.687Z,54.40
2019-06-20T21:51:08.360Z,54.40
2019-06-20T21:53:37.900Z,54.80
2019-06-20T21:56:07.942Z,54.40
2019-06-20T21:58:37.882Z,54.40
2019-06-20T22:01:09.370Z,54.40
2019-06-20T22:03:40.593Z,54.30
2019-06-20T22:06:22.913Z,54.30
2019-06-20T22:08:41.564Z,54.30
2019-06-20T22:11:11.035Z,54.30
2019-06-20T22:13:42.164Z,54.30
2019-06-20T22:16:11.610Z,54.30
2019-06-20T22:18:41.267Z,54.40
2019-06-20T22:21:10.754Z,54.40
2019-06-20T22:23:40.161Z,54.40
2019-06-20T22:26:09.590Z,54.50
2019-06-20T22:28:39.053Z,54.50
2019-06-20T22:31:08.458Z,54.60
2019-06-20T22:33:37.828Z,54.60
2019-06-20T22:36:10.026Z,54.60
2019-06-20T22:38:41.992Z,54.80
2019-06-20T22:41:11.363Z,54.70
2019-06-20T22:43:40.796Z,54.80
2019-06-20T22:46:10.137Z,54.90
2019-06-20T22:48:39.632Z,54.90
2019-06-20T22:51:08.960Z,55.00
2019-06-20T22:53:38.348Z,55.10
2019-06-20T22:56:07.910Z,55.20
2019-06-20T22:58:37.314Z,55.10
2019-06-20T23:01:07.651Z,55.20
2019-06-20T23:03:37.187Z,55.30
2019-06-20T23:06:06.605Z,55.40
2019-06-20T23:08:35.953Z,55.30
2019-06-20T23:11:05.291Z,55.40
2019-06-20T23:13:35.644Z,55.50
2019-06-20T23:16:05.504Z,55.60
2019-06-20T23:18:34.894Z,55.60
2019-06-20T23:21:05.290Z,55.50
2019-06-20T23:23:34.856Z,55.70
2019-06-20T23:26:05.971Z,55.70
2019-06-20T23:28:35.376Z,55.70
2019-06-20T23:31:05.007Z,55.70
2019-06-20T23:33:34.454Z,55.70
2019-06-20T23:36:03.986Z,55.80
2019-06-20T23:38:33.424Z,55.90
2019-06-20T23:41:02.949Z,55.90
2019-06-20T23:43:32.341Z,55.90
2019-06-20T23:46:01.668Z,55.90
2019-06-20T23:48:31.034Z,55.90
2019-06-20T23:51:00.507Z,56.00
2019-06-20T23:53:29.918Z,56.40
2019-06-20T23:55:59.283Z,56.00
2019-06-20T23:58:28.611Z,56.00
